Hovedside
METAR-TAF:

METAR-TAF

Lufthavner :

Pattaya-Rayong, Thailand

breddegrad: 12-38N, lengdegrad: 101-21E, høyde over havet: 3 m

Gjeldene værobservasjon

Denne rapporten ble laget for 31 minutter siden, klokken 22:00 UTC
Vind 4 kt fra Vest-sørvest
Temperatur 29°C
Luftfuktighet 79%
Trykk 1006 hPa
Sikt 10 km eller mer
Få skyer i en høyde av 2000 ft

METAR: VTBU 182200Z 25004KT 9999 FEW020 29/25 Q1006 NOSIG

Tid: 05:31 (22:31 UTC)

Varsel

Denne rapporten ble laget for 5 timer og 31 minutter siden, klokken 17:00 UTC
Varsel gyldig fra 18. klokken 18 UTC til 19. klokken 18 UTC
Vind 4 kt fra Nord
Sikt 10 km eller mer
Få skyer i en høyde av 2000 ft
Blir
fra 19. klokken 01 UTC til 19. klokken 02 UTC
Vind 8 kt fra Sør

TAF: VTBU 181700Z 1818/1918 35004KT 9999 FEW020 BECMG 1901/1902 18008KT

Værobservasjoner og værvarsel for over 4000 flyplasser (METAR- og TAF-rapporter).

Tilgjengelige stasjoner er representert av de røde og gule prikkene på kartet.

Hold musepekeren over prikken for å se navnet på stasjonen.

Klikk så for å se værobservasjoner og -varsler.

For å forandre kartet kan du klikke på den grønne knappen med svart kryss for å zoome inn, på den grønne knappen med strek for å zoome ut, eller på de grønne pilene for å se tilstøtende kart.


METAR-TAF: